sensor_id;sensor_type;location;lat;lon;timestamp;pressure;altitude;pressure_sealevel;temperature;humidity
26083;BME280;13848;49.018;12.078;2023-03-26T00:00:11;97045.81;;;8.25;67.62
26083;BME280;13848;49.018;12.078;2023-03-26T00:02:37;97042.91;;;8.26;67.96
26083;BME280;13848;49.018;12.078;2023-03-26T00:05:04;97036.16;;;8.17;67.82
26083;BME280;13848;49.018;12.078;2023-03-26T00:07:30;97043.59;;;7.97;68.28
26083;BME280;13848;49.018;12.078;2023-03-26T00:09:56;97043.44;;;7.92;68.42
26083;BME280;13848;49.018;12.078;2023-03-26T00:12:23;97056.13;;;7.85;68.60
26083;BME280;13848;49.018;12.078;2023-03-26T00:14:49;97056.47;;;7.88;68.18
26083;BME280;13848;49.018;12.078;2023-03-26T00:17:15;97059.44;;;7.80;68.44
26083;BME280;13848;49.018;12.078;2023-03-26T00:19:41;97062.22;;;7.92;68.10
26083;BME280;13848;49.018;12.078;2023-03-26T00:22:07;97066.56;;;7.93;67.91
26083;BME280;13848;49.018;12.078;2023-03-26T00:24:33;97073.84;;;7.86;68.06
26083;BME280;13848;49.018;12.078;2023-03-26T00:26:59;97077.94;;;7.88;68.21
26083;BME280;13848;49.018;12.078;2023-03-26T00:29:26;97084.59;;;7.86;68.08
26083;BME280;13848;49.018;12.078;2023-03-26T00:31:52;97079.38;;;7.91;68.23
26083;BME280;13848;49.018;12.078;2023-03-26T00:34:18;97077.28;;;7.93;68.00
26083;BME280;13848;49.018;12.078;2023-03-26T00:36:44;97068.94;;;7.83;67.63
26083;BME280;13848;49.018;12.078;2023-03-26T00:39:10;97072.22;;;7.85;67.81
26083;BME280;13848;49.018;12.078;2023-03-26T00:41:36;97069.75;;;7.83;67.97
26083;BME280;13848;49.018;12.078;2023-03-26T00:44:02;97065.88;;;7.79;67.78
26083;BME280;13848;49.018;12.078;2023-03-26T00:46:30;97063.56;;;7.83;67.44
26083;BME280;13848;49.018;12.078;2023-03-26T00:48:56;97067.22;;;7.88;67.44
26083;BME280;13848;49.018;12.078;2023-03-26T00:51:22;97070.06;;;7.93;67.44
26083;BME280;13848;49.018;12.078;2023-03-26T00:53:48;97066.19;;;7.89;67.57
26083;BME280;13848;49.018;12.078;2023-03-26T00:56:15;97068.00;;;7.95;67.11
26083;BME280;13848;49.018;12.078;2023-03-26T00:58:41;97061.47;;;7.85;67.48
26083;BME280;13848;49.018;12.078;2023-03-26T01:01:09;97066.72;;;7.98;66.95
26083;BME280;13848;49.018;12.078;2023-03-26T01:03:37;97061.41;;;7.91;67.16
26083;BME280;13848;49.018;12.078;2023-03-26T01:06:04;97063.88;;;7.93;66.89
26083;BME280;13848;49.018;12.078;2023-03-26T01:08:31;97066.28;;;8.01;66.78
26083;BME280;13848;49.018;12.078;2023-03-26T01:11:00;97060.53;;;7.97;66.54
26083;BME280;13848;49.018;12.078;2023-03-26T01:13:29;97060.31;;;7.99;66.29
26083;BME280;13848;49.018;12.078;2023-03-26T01:15:56;97062.28;;;7.85;66.79
26083;BME280;13848;49.018;12.078;2023-03-26T01:18:23;97064.63;;;8.00;66.24
26083;BME280;13848;49.018;12.078;2023-03-26T01:20:54;97070.00;;;8.00;66.57
26083;BME280;13848;49.018;12.078;2023-03-26T01:23:23;97063.16;;;8.04;65.88
26083;BME280;13848;49.018;12.078;2023-03-26T01:26:01;97063.53;;;8.08;65.92
26083;BME280;13848;49.018;12.078;2023-03-26T01:28:33;97050.47;;;8.11;65.87
26083;BME280;13848;49.018;12.078;2023-03-26T01:31:05;97065.03;;;8.04;65.86
26083;BME280;13848;49.018;12.078;2023-03-26T01:33:41;97056.69;;;8.12;65.70
26083;BME280;13848;49.018;12.078;2023-03-26T01:36:14;97057.66;;;8.17;65.54
26083;BME280;13848;49.018;12.078;2023-03-26T01:38:46;97064.88;;;8.17;64.95
26083;BME280;13848;49.018;12.078;2023-03-26T01:41:21;97061.53;;;8.21;65.52
26083;BME280;13848;49.018;12.078;2023-03-26T01:43:52;97065.19;;;8.09;65.83
26083;BME280;13848;49.018;12.078;2023-03-26T01:46:19;97064.94;;;8.10;66.01
26083;BME280;13848;49.018;12.078;2023-03-26T01:48:47;97064.19;;;8.03;66.31
26083;BME280;13848;49.018;12.078;2023-03-26T01:51:25;97057.13;;;8.09;66.03
26083;BME280;13848;49.018;12.078;2023-03-26T01:53:52;97053.03;;;8.06;66.13
26083;BME280;13848;49.018;12.078;2023-03-26T01:56:25;97055.09;;;8.04;66.30
26083;BME280;13848;49.018;12.078;2023-03-26T01:59:04;97051.47;;;8.17;65.99
26083;BME280;13848;49.018;12.078;2023-03-26T02:01:36;97052.91;;;8.19;66.05
26083;BME280;13848;49.018;12.078;2023-03-26T02:04:12;97050.47;;;8.11;66.29
26083;BME280;13848;49.018;12.078;2023-03-26T02:06:45;97053.84;;;8.07;66.63
26083;BME280;13848;49.018;12.078;2023-03-26T02:09:15;97052.44;;;8.22;66.01
26083;BME280;13848;49.018;12.078;2023-03-26T02:11:46;97047.06;;;8.22;65.68
26083;BME280;13848;49.018;12.078;2023-03-26T02:14:13;97050.44;;;8.18;66.10
26083;BME280;13848;49.018;12.078;2023-03-26T02:16:39;97042.75;;;8.21;66.22
26083;BME280;13848;49.018;12.078;2023-03-26T02:19:05;97047.00;;;8.29;66.18
26083;BME280;13848;49.018;12.078;2023-03-26T02:21:31;97045.94;;;8.37;65.96
26083;BME280;13848;49.018;12.078;2023-03-26T02:23:57;97041.78;;;8.34;65.99
26083;BME280;13848;49.018;12.078;2023-03-26T02:26:23;97037.41;;;8.40;66.24
26083;BME280;13848;49.018;12.078;2023-03-26T02:28:51;97029.94;;;8.23;66.19
26083;BME280;13848;49.018;12.078;2023-03-26T02:31:17;97034.38;;;8.11;66.81
26083;BME280;13848;49.018;12.078;2023-03-26T02:33:43;97034.09;;;8.01;67.19
26083;BME280;13848;49.018;12.078;2023-03-26T02:36:09;97031.09;;;8.09;67.05
26083;BME280;13848;49.018;12.078;2023-03-26T02:38:35;97036.47;;;8.09;67.00
26083;BME280;13848;49.018;12.078;2023-03-26T02:41:02;97025.31;;;8.12;67.21
26083;BME280;13848;49.018;12.078;2023-03-26T02:43:28;97029.78;;;8.18;66.81
26083;BME280;13848;49.018;12.078;2023-03-26T02:45:56;97024.31;;;8.07;67.32
26083;BME280;13848;49.018;12.078;2023-03-26T02:48:22;97026.31;;;8.11;66.83
26083;BME280;13848;49.018;12.078;2023-03-26T02:50:48;97012.84;;;8.18;66.94
26083;BME280;13848;49.018;12.078;2023-03-26T02:53:14;97007.69;;;8.16;66.73
26083;BME280;13848;49.018;12.078;2023-03-26T02:55:41;97009.47;;;8.22;66.96
26083;BME280;13848;49.018;12.078;2023-03-26T02:58:07;97006.72;;;8.29;66.71
26083;BME280;13848;49.018;12.078;2023-03-26T03:00:33;97005.47;;;8.13;67.19
26083;BME280;13848;49.018;12.078;2023-03-26T03:03:00;96999.84;;;7.96;67.64
26083;BME280;13848;49.018;12.078;2023-03-26T03:05:26;96998.88;;;7.91;67.45
26083;BME280;13848;49.018;12.078;2023-03-26T03:07:53;96989.53;;;7.93;67.47
26083;BME280;13848;49.018;12.078;2023-03-26T03:10:19;96992.53;;;8.04;67.27
26083;BME280;13848;49.018;12.078;2023-03-26T03:12:45;96986.84;;;7.93;67.68
26083;BME280;13848;49.018;12.078;2023-03-26T03:15:11;96986.50;;;8.08;66.87
26083;BME280;13848;49.018;12.078;2023-03-26T03:17:38;96984.56;;;8.15;66.62
26083;BME280;13848;49.018;12.078;2023-03-26T03:20:06;96978.59;;;8.13;66.61
26083;BME280;13848;49.018;12.078;2023-03-26T03:22:32;96983.00;;;8.08;66.72
26083;BME280;13848;49.018;12.078;2023-03-26T03:24:58;96990.09;;;8.02;66.79
26083;BME280;13848;49.018;12.078;2023-03-26T03:27:24;96981.56;;;7.87;67.70
26083;BME280;13848;49.018;12.078;2023-03-26T03:29:50;96988.94;;;7.91;67.63
26083;BME280;13848;49.018;12.078;2023-03-26T03:32:16;96989.09;;;7.96;67.52
26083;BME280;13848;49.018;12.078;2023-03-26T03:34:42;96989.47;;;8.00;67.41
26083;BME280;13848;49.018;12.078;2023-03-26T03:37:09;96976.56;;;7.90;67.51
26083;BME280;13848;49.018;12.078;2023-03-26T03:39:35;96984.63;;;7.90;67.87
26083;BME280;13848;49.018;12.078;2023-03-26T03:42:01;96985.63;;;7.71;68.51
26083;BME280;13848;49.018;12.078;2023-03-26T03:44:28;96990.22;;;7.64;68.46
26083;BME280;13848;49.018;12.078;2023-03-26T03:46:54;96991.28;;;7.63;68.38
26083;BME280;13848;49.018;12.078;2023-03-26T03:49:20;96988.53;;;7.69;68.37
26083;BME280;13848;49.018;12.078;2023-03-26T03:51:46;96981.31;;;7.70;69.01
26083;BME280;13848;49.018;12.078;2023-03-26T03:54:13;96976.00;;;7.63;68.64
26083;BME280;13848;49.018;12.078;2023-03-26T03:56:39;96973.94;;;7.40;69.82
26083;BME280;13848;49.018;12.078;2023-03-26T03:59:05;96982.16;;;7.20;71.16
26083;BME280;13848;49.018;12.078;2023-03-26T04:01:31;96968.09;;;7.25;71.15
26083;BME280;13848;49.018;12.078;2023-03-26T04:03:57;96974.19;;;7.07;72.79
26083;BME280;13848;49.018;12.078;2023-03-26T04:06:23;96961.09;;;6.92;73.20
26083;BME280;13848;49.018;12.078;2023-03-26T04:08:49;96965.22;;;6.88;74.20
26083;BME280;13848;49.018;12.078;2023-03-26T04:11:17;96962.44;;;6.77;74.50
26083;BME280;13848;49.018;12.078;2023-03-26T04:13:43;96958.09;;;6.76;74.16
26083;BME280;13848;49.018;12.078;2023-03-26T04:16:09;96951.13;;;6.75;74.50
26083;BME280;13848;49.018;12.078;2023-03-26T04:18:35;96956.47;;;6.75;75.38
26083;BME280;13848;49.018;12.078;2023-03-26T04:21:02;96963.38;;;6.57;75.42
26083;BME280;13848;49.018;12.078;2023-03-26T04:23:28;96960.44;;;6.65;75.65
26083;BME280;13848;49.018;12.078;2023-03-26T04:25:55;96960.13;;;6.42;77.71
26083;BME280;13848;49.018;12.078;2023-03-26T04:28:27;96959.75;;;6.32;78.15
26083;BME280;13848;49.018;12.078;2023-03-26T04:30:56;96960.19;;;6.29;78.41
26083;BME280;13848;49.018;12.078;2023-03-26T04:33:23;96952.31;;;6.40;77.75
26083;BME280;13848;49.018;12.078;2023-03-26T04:35:49;96950.16;;;6.62;75.97
26083;BME280;13848;49.018;12.078;2023-03-26T04:38:16;96944.81;;;6.62;76.55
26083;BME280;13848;49.018;12.078;2023-03-26T04:40:43;96952.09;;;6.42;77.37
26083;BME280;13848;49.018;12.078;2023-03-26T04:43:11;96953.22;;;6.28;78.23
26083;BME280;13848;49.018;12.078;2023-03-26T04:45:38;96962.72;;;6.17;79.69
26083;BME280;13848;49.018;12.078;2023-03-26T04:48:04;96961.91;;;6.17;79.23
26083;BME280;13848;49.018;12.078;2023-03-26T04:50:30;96959.53;;;6.40;78.44
26083;BME280;13848;49.018;12.078;2023-03-26T04:52:56;96953.88;;;6.61;77.50
26083;BME280;13848;49.018;12.078;2023-03-26T04:55:24;96948.84;;;6.72;76.30
26083;BME280;13848;49.018;12.078;2023-03-26T04:57:54;96937.25;;;6.84;75.41
26083;BME280;13848;49.018;12.078;2023-03-26T05:00:21;96942.81;;;6.83;75.84
26083;BME280;13848;49.018;12.078;2023-03-26T05:02:48;96943.06;;;6.75;76.29
26083;BME280;13848;49.018;12.078;2023-03-26T05:05:14;96944.03;;;6.55;76.75
26083;BME280;13848;49.018;12.078;2023-03-26T05:07:40;96941.53;;;6.54;77.80
26083;BME280;13848;49.018;12.078;2023-03-26T05:10:07;96942.75;;;6.58;77.73
26083;BME280;13848;49.018;12.078;2023-03-26T05:12:33;96939.50;;;6.56;77.14
26083;BME280;13848;49.018;12.078;2023-03-26T05:14:59;96939.75;;;6.41;78.08
26083;BME280;13848;49.018;12.078;2023-03-26T05:17:25;96935.00;;;6.43;77.68
26083;BME280;13848;49.018;12.078;2023-03-26T05:19:52;96934.31;;;6.54;77.29
26083;BME280;13848;49.018;12.078;2023-03-26T05:22:18;96937.34;;;6.64;77.40
26083;BME280;13848;49.018;12.078;2023-03-26T05:24:44;96933.38;;;6.42;78.94
26083;BME280;13848;49.018;12.078;2023-03-26T05:27:13;96929.44;;;6.45;78.68
26083;BME280;13848;49.018;12.078;2023-03-26T05:29:38;96920.50;;;6.57;77.70
26083;BME280;13848;49.018;12.078;2023-03-26T05:32:05;96929.03;;;6.79;76.58
26083;BME280;13848;49.018;12.078;2023-03-26T05:34:31;96922.75;;;6.92;76.53
26083;BME280;13848;49.018;12.078;2023-03-26T05:36:58;96915.75;;;6.91;76.62
26083;BME280;13848;49.018;12.078;2023-03-26T05:39:24;96912.38;;;7.02;75.98
26083;BME280;13848;49.018;12.078;2023-03-26T05:41:50;96918.50;;;7.09;75.61
26083;BME280;13848;49.018;12.078;2023-03-26T05:44:16;96914.94;;;7.15;75.51
26083;BME280;13848;49.018;12.078;2023-03-26T05:46:42;96906.47;;;7.18;75.30
26083;BME280;13848;49.018;12.078;2023-03-26T05:49:08;96907.84;;;7.28;75.66
26083;BME280;13848;49.018;12.078;2023-03-26T05:51:34;96907.44;;;6.99;76.45
26083;BME280;13848;49.018;12.078;2023-03-26T05:54:01;96906.69;;;6.92;76.91
26083;BME280;13848;49.018;12.078;2023-03-26T05:56:27;96905.41;;;6.94;76.47
26083;BME280;13848;49.018;12.078;2023-03-26T05:58:54;96905.63;;;7.18;76.46
26083;BME280;13848;49.018;12.078;2023-03-26T06:01:20;96900.28;;;7.18;76.05
26083;BME280;13848;49.018;12.078;2023-03-26T06:03:46;96905.94;;;7.53;75.62
26083;BME280;13848;49.018;12.078;2023-03-26T06:06:14;96890.00;;;7.58;74.92
26083;BME280;13848;49.018;12.078;2023-03-26T06:08:41;96880.41;;;7.69;74.53
26083;BME280;13848;49.018;12.078;2023-03-26T06:11:09;96877.06;;;7.73;74.49
26083;BME280;13848;49.018;12.078;2023-03-26T06:13:35;96880.31;;;7.76;73.96
26083;BME280;13848;49.018;12.078;2023-03-26T06:16:01;96881.91;;;7.83;74.32
26083;BME280;13848;49.018;12.078;2023-03-26T06:18:26;96879.72;;;7.92;74.08
26083;BME280;13848;49.018;12.078;2023-03-26T06:20:52;96876.31;;;7.85;74.09
26083;BME280;13848;49.018;12.078;2023-03-26T06:23:19;96879.41;;;8.18;73.75
26083;BME280;13848;49.018;12.078;2023-03-26T06:25:45;96872.59;;;7.67;73.46
26083;BME280;13848;49.018;12.078;2023-03-26T06:28:12;96880.94;;;7.78;74.02
26083;BME280;13848;49.018;12.078;2023-03-26T06:30:38;96874.72;;;7.40;73.77
26083;BME280;13848;49.018;12.078;2023-03-26T06:33:04;96856.69;;;7.47;73.98
26083;BME280;13848;49.018;12.078;2023-03-26T06:35:30;96859.75;;;7.69;73.54
26083;BME280;13848;49.018;12.078;2023-03-26T06:37:56;96849.16;;;7.93;73.32
26083;BME280;13848;49.018;12.078;2023-03-26T06:40:22;96848.78;;;8.08;72.42
26083;BME280;13848;49.018;12.078;2023-03-26T06:42:48;96852.41;;;8.13;72.10
26083;BME280;13848;49.018;12.078;2023-03-26T06:45:16;96850.91;;;8.17;72.21
26083;BME280;13848;49.018;12.078;2023-03-26T06:47:42;96846.00;;;8.14;71.83
26083;BME280;13848;49.018;12.078;2023-03-26T06:50:09;96847.03;;;8.13;71.45
26083;BME280;13848;49.018;12.078;2023-03-26T06:52:35;96842.44;;;8.02;71.03
26083;BME280;13848;49.018;12.078;2023-03-26T06:55:00;96849.25;;;8.16;71.52
26083;BME280;13848;49.018;12.078;2023-03-26T06:57:26;96846.09;;;8.08;70.62
26083;BME280;13848;49.018;12.078;2023-03-26T06:59:52;96850.63;;;8.07;71.46
26083;BME280;13848;49.018;12.078;2023-03-26T07:02:20;96846.44;;;8.11;70.81
26083;BME280;13848;49.018;12.078;2023-03-26T07:04:45;96841.00;;;7.99;70.90
26083;BME280;13848;49.018;12.078;2023-03-26T07:07:11;96838.78;;;7.96;70.46
26083;BME280;13848;49.018;12.078;2023-03-26T07:09:37;96841.47;;;7.96;70.90
26083;BME280;13848;49.018;12.078;2023-03-26T07:12:03;96836.34;;;7.95;70.68
26083;BME280;13848;49.018;12.078;2023-03-26T07:14:29;96832.22;;;7.92;70.64
26083;BME280;13848;49.018;12.078;2023-03-26T07:16:56;96829.66;;;7.67;70.98
26083;BME280;13848;49.018;12.078;2023-03-26T07:19:24;96831.28;;;7.68;71.37
26083;BME280;13848;49.018;12.078;2023-03-26T07:21:50;96824.28;;;7.67;71.31
26083;BME280;13848;49.018;12.078;2023-03-26T07:24:17;96832.41;;;7.79;70.89
26083;BME280;13848;49.018;12.078;2023-03-26T07:26:50;96828.28;;;7.77;70.86
26083;BME280;13848;49.018;12.078;2023-03-26T07:29:26;96816.69;;;7.83;70.40
26083;BME280;13848;49.018;12.078;2023-03-26T07:32:02;96814.50;;;7.91;70.79
26083;BME280;13848;49.018;12.078;2023-03-26T07:34:39;96804.25;;;8.00;70.48
26083;BME280;13848;49.018;12.078;2023-03-26T07:37:12;96799.34;;;7.97;70.29
26083;BME280;13848;49.018;12.078;2023-03-26T07:39:45;96796.19;;;8.00;70.45
26083;BME280;13848;49.018;12.078;2023-03-26T07:42:26;96797.53;;;7.79;71.15
26083;BME280;13848;49.018;12.078;2023-03-26T07:44:59;96795.06;;;7.78;71.19
26083;BME280;13848;49.018;12.078;2023-03-26T07:47:29;96784.91;;;7.80;70.86
26083;BME280;13848;49.018;12.078;2023-03-26T07:49:58;96789.06;;;7.94;71.03
26083;BME280;13848;49.018;12.078;2023-03-26T07:52:25;96786.69;;;7.86;70.33
26083;BME280;13848;49.018;12.078;2023-03-26T07:54:52;96786.66;;;8.04;70.78
26083;BME280;13848;49.018;12.078;2023-03-26T07:57:27;96784.47;;;7.83;70.55
26083;BME280;13848;49.018;12.078;2023-03-26T08:00:01;96788.94;;;7.89;71.09
26083;BME280;13848;49.018;12.078;2023-03-26T08:02:40;96775.72;;;8.17;70.10
26083;BME280;13848;49.018;12.078;2023-03-26T08:05:19;96773.44;;;8.33;69.66
26083;BME280;13848;49.018;12.078;2023-03-26T08:08:02;96766.13;;;8.40;69.63
26083;BME280;13848;49.018;12.078;2023-03-26T08:10:35;96756.72;;;8.19;69.83
26083;BME280;13848;49.018;12.078;2023-03-26T08:13:16;96737.94;;;8.31;70.17
26083;BME280;13848;49.018;12.078;2023-03-26T08:15:49;96745.13;;;8.48;70.02
26083;BME280;13848;49.018;12.078;2023-03-26T08:18:25;96740.00;;;8.59;69.67
26083;BME280;13848;49.018;12.078;2023-03-26T08:20:58;96742.91;;;8.57;70.14
26083;BME280;13848;49.018;12.078;2023-03-26T08:23:29;96745.41;;;8.28;70.86
26083;BME280;13848;49.018;12.078;2023-03-26T08:26:00;96728.19;;;8.48;70.30
26083;BME280;13848;49.018;12.078;2023-03-26T08:28:49;96724.22;;;8.62;70.01
26083;BME280;13848;49.018;12.078;2023-03-26T08:31:22;96717.56;;;8.53;69.64
26083;BME280;13848;49.018;12.078;2023-03-26T08:33:51;96720.25;;;8.53;69.51
26083;BME280;13848;49.018;12.078;2023-03-26T08:36:19;96718.16;;;8.55;69.89
26083;BME280;13848;49.018;12.078;2023-03-26T08:38:44;96712.19;;;8.53;69.69
26083;BME280;13848;49.018;12.078;2023-03-26T08:41:50;96714.53;;;8.61;69.85
26083;BME280;13848;49.018;12.078;2023-03-26T08:51:25;96707.78;;;8.59;70.65
26083;BME280;13848;49.018;12.078;2023-03-26T08:54:24;96701.22;;;8.78;70.47
26083;BME280;13848;49.018;12.078;2023-03-26T08:57:06;96689.06;;;8.75;70.74
26083;BME280;13848;49.018;12.078;2023-03-26T09:00:22;96685.34;;;8.65;70.61
26083;BME280;13848;49.018;12.078;2023-03-26T09:18:37;96647.06;;;8.98;73.27
26083;BME280;13848;49.018;12.078;2023-03-26T09:21:42;96639.50;;;8.95;74.03
26083;BME280;13848;49.018;12.078;2023-03-26T09:24:29;96636.84;;;8.71;74.26
26083;BME280;13848;49.018;12.078;2023-03-26T09:27:17;96626.44;;;8.63;75.22
26083;BME280;13848;49.018;12.078;2023-03-26T09:30:12;96621.28;;;8.73;75.13
26083;BME280;13848;49.018;12.078;2023-03-26T09:35:42;96603.97;;;8.81;75.80
26083;BME280;13848;49.018;12.078;2023-03-26T09:38:28;96609.53;;;8.51;77.22
26083;BME280;13848;49.018;12.078;2023-03-26T09:41:02;96607.06;;;8.61;77.06
26083;BME280;13848;49.018;12.078;2023-03-26T09:43:49;96592.31;;;8.64;76.78
26083;BME280;13848;49.018;12.078;2023-03-26T09:46:27;96598.31;;;8.66;76.10
26083;BME280;13848;49.018;12.078;2023-03-26T09:49:04;96585.53;;;8.73;76.44
26083;BME280;13848;49.018;12.078;2023-03-26T09:51:46;96578.63;;;8.89;76.41
26083;BME280;13848;49.018;12.078;2023-03-26T09:54:37;96569.00;;;8.93;75.76
26083;BME280;13848;49.018;12.078;2023-03-26T09:57:13;96574.19;;;8.83;76.59
26083;BME280;13848;49.018;12.078;2023-03-26T10:00:16;96570.31;;;8.90;76.63
26083;BME280;13848;49.018;12.078;2023-03-26T10:03:02;96567.19;;;8.82;76.43
26083;BME280;13848;49.018;12.078;2023-03-26T10:05:45;96570.69;;;8.82;76.49
26083;BME280;13848;49.018;12.078;2023-03-26T10:08:33;96575.78;;;8.95;76.12
26083;BME280;13848;49.018;12.078;2023-03-26T10:11:04;96574.59;;;9.03;76.20
26083;BME280;13848;49.018;12.078;2023-03-26T10:13:35;96568.75;;;9.06;76.16
26083;BME280;13848;49.018;12.078;2023-03-26T10:16:15;96566.41;;;8.98;75.08
26083;BME280;13848;49.018;12.078;2023-03-26T10:18:55;96558.41;;;8.86;74.97
26083;BME280;13848;49.018;12.078;2023-03-26T10:21:29;96557.72;;;8.79;75.06
26083;BME280;13848;49.018;12.078;2023-03-26T10:24:16;96556.66;;;8.80;74.78
26083;BME280;13848;49.018;12.078;2023-03-26T10:26:53;96557.84;;;8.72;74.53
26083;BME280;13848;49.018;12.078;2023-03-26T10:29:33;96557.06;;;8.60;74.21
26083;BME280;13848;49.018;12.078;2023-03-26T10:32:16;96561.28;;;8.56;73.83
26083;BME280;13848;49.018;12.078;2023-03-26T10:34:53;96565.59;;;8.45;74.02
26083;BME280;13848;49.018;12.078;2023-03-26T10:37:30;96570.38;;;8.32;74.18
26083;BME280;13848;49.018;12.078;2023-03-26T10:40:14;96568.44;;;8.39;74.88
26083;BME280;13848;49.018;12.078;2023-03-26T10:42:58;96557.53;;;8.34;75.16
26083;BME280;13848;49.018;12.078;2023-03-26T10:45:38;96557.31;;;8.35;75.21
26083;BME280;13848;49.018;12.078;2023-03-26T10:48:32;96560.47;;;8.44;75.54
26083;BME280;13848;49.018;12.078;2023-03-26T10:51:15;96566.09;;;8.54;75.55
26083;BME280;13848;49.018;12.078;2023-03-26T10:53:48;96559.09;;;8.06;76.76
26083;BME280;13848;49.018;12.078;2023-03-26T10:56:21;96568.41;;;7.92;77.78
26083;BME280;13848;49.018;12.078;2023-03-26T10:58:50;96567.84;;;8.02;78.40
26083;BME280;13848;49.018;12.078;2023-03-26T11:01:23;96574.13;;;8.07;77.34
26083;BME280;13848;49.018;12.078;2023-03-26T11:03:55;96576.91;;;7.65;76.67
26083;BME280;13848;49.018;12.078;2023-03-26T11:06:30;96573.50;;;7.82;77.33
26083;BME280;13848;49.018;12.078;2023-03-26T11:09:04;96581.78;;;7.68;77.80
26083;BME280;13848;49.018;12.078;2023-03-26T11:11:36;96575.84;;;7.66;78.92
26083;BME280;13848;49.018;12.078;2023-03-26T11:14:09;96576.06;;;7.77;79.52
26083;BME280;13848;49.018;12.078;2023-03-26T11:16:48;96577.88;;;8.06;79.09
26083;BME280;13848;49.018;12.078;2023-03-26T11:19:24;96575.97;;;7.71;77.92
26083;BME280;13848;49.018;12.078;2023-03-26T11:21:57;96573.97;;;7.67;78.21
26083;BME280;13848;49.018;12.078;2023-03-26T11:24:45;96569.31;;;7.74;79.09
26083;BME280;13848;49.018;12.078;2023-03-26T11:27:21;96564.72;;;7.51;80.21
26083;BME280;13848;49.018;12.078;2023-03-26T11:29:54;96560.72;;;7.84;79.83
26083;BME280;13848;49.018;12.078;2023-03-26T11:32:22;96568.94;;;7.70;80.72
26083;BME280;13848;49.018;12.078;2023-03-26T11:34:57;96568.50;;;7.73;80.22
26083;BME280;13848;49.018;12.078;2023-03-26T11:37:31;96568.91;;;7.47;81.50
26083;BME280;13848;49.018;12.078;2023-03-26T11:39:59;96563.50;;;7.35;81.20
26083;BME280;13848;49.018;12.078;2023-03-26T11:42:27;96561.00;;;7.64;80.75
26083;BME280;13848;49.018;12.078;2023-03-26T11:44:54;96567.56;;;7.80;81.43
26083;BME280;13848;49.018;12.078;2023-03-26T11:47:24;96551.13;;;7.88;80.35
26083;BME280;13848;49.018;12.078;2023-03-26T11:49:57;96560.72;;;7.84;80.01
26083;BME280;13848;49.018;12.078;2023-03-26T11:52:25;96555.31;;;7.60;80.89
26083;BME280;13848;49.018;12.078;2023-03-26T11:54:51;96544.81;;;7.82;80.79
26083;BME280;13848;49.018;12.078;2023-03-26T11:57:20;96545.97;;;7.74;79.71
26083;BME280;13848;49.018;12.078;2023-03-26T11:59:50;96539.44;;;7.70;79.83
26083;BME280;13848;49.018;12.078;2023-03-26T12:02:24;96536.84;;;7.52;80.69
26083;BME280;13848;49.018;12.078;2023-03-26T12:04:51;96537.28;;;7.26;80.72
26083;BME280;13848;49.018;12.078;2023-03-26T12:07:20;96518.44;;;7.44;80.20
26083;BME280;13848;49.018;12.078;2023-03-26T12:09:50;96513.66;;;7.58;80.40
26083;BME280;13848;49.018;12.078;2023-03-26T12:12:17;96506.22;;;7.60;79.63
26083;BME280;13848;49.018;12.078;2023-03-26T12:14:43;96501.53;;;7.55;80.01
26083;BME280;13848;49.018;12.078;2023-03-26T12:17:12;96487.66;;;7.82;80.04
26083;BME280;13848;49.018;12.078;2023-03-26T12:19:40;96462.47;;;8.06;80.11
26083;BME280;13848;49.018;12.078;2023-03-26T12:22:31;96470.72;;;7.93;80.22
26083;BME280;13848;49.018;12.078;2023-03-26T12:25:00;96463.81;;;8.20;79.79
26083;BME280;13848;49.018;12.078;2023-03-26T12:27:27;96461.00;;;8.39;79.50
26083;BME280;13848;49.018;12.078;2023-03-26T12:29:58;96466.38;;;8.27;78.69
26083;BME280;13848;49.018;12.078;2023-03-26T12:32:24;96462.78;;;7.98;79.29
26083;BME280;13848;49.018;12.078;2023-03-26T12:34:55;96462.09;;;8.03;79.39
26083;BME280;13848;49.018;12.078;2023-03-26T12:37:34;96460.78;;;8.05;79.29
26083;BME280;13848;49.018;12.078;2023-03-26T12:40:24;96451.78;;;8.23;79.26
26083;BME280;13848;49.018;12.078;2023-03-26T12:42:52;96449.69;;;8.37;77.67
26083;BME280;13848;49.018;12.078;2023-03-26T12:45:20;96447.56;;;8.39;77.68
26083;BME280;13848;49.018;12.078;2023-03-26T12:47:46;96445.81;;;8.33;77.77
26083;BME280;13848;49.018;12.078;2023-03-26T12:50:12;96444.88;;;8.39;78.43
26083;BME280;13848;49.018;12.078;2023-03-26T12:52:53;96438.75;;;8.55;77.42
26083;BME280;13848;49.018;12.078;2023-03-26T12:55:35;96437.25;;;8.59;77.80
26083;BME280;13848;49.018;12.078;2023-03-26T12:58:13;96434.81;;;8.74;77.53
26083;BME280;13848;49.018;12.078;2023-03-26T13:00:51;96418.16;;;8.89;77.21
26083;BME280;13848;49.018;12.078;2023-03-26T13:03:29;96423.19;;;8.86;75.85
26083;BME280;13848;49.018;12.078;2023-03-26T13:06:23;96420.56;;;8.74;76.38
26083;BME280;13848;49.018;12.078;2023-03-26T13:09:06;96425.22;;;8.78;77.06
26083;BME280;13848;49.018;12.078;2023-03-26T13:11:42;96423.19;;;8.86;77.20
26083;BME280;13848;49.018;12.078;2023-03-26T13:14:31;96418.97;;;8.90;77.34
26083;BME280;13848;49.018;12.078;2023-03-26T13:17:03;96416.16;;;9.13;76.83
26083;BME280;13848;49.018;12.078;2023-03-26T13:19:39;96413.03;;;9.21;76.76
26083;BME280;13848;49.018;12.078;2023-03-26T13:22:17;96414.91;;;9.21;76.03
26083;BME280;13848;49.018;12.078;2023-03-26T13:24:55;96398.47;;;9.34;76.88
26083;BME280;13848;49.018;12.078;2023-03-26T13:27:36;96389.31;;;9.52;76.15
26083;BME280;13848;49.018;12.078;2023-03-26T13:30:17;96387.69;;;9.51;75.91
26083;BME280;13848;49.018;12.078;2023-03-26T13:32:52;96381.56;;;9.39;76.00
26083;BME280;13848;49.018;12.078;2023-03-26T13:35:26;96381.19;;;8.96;76.92
26083;BME280;13848;49.018;12.078;2023-03-26T13:38:00;96375.34;;;9.16;77.02
26083;BME280;13848;49.018;12.078;2023-03-26T13:40:34;96371.97;;;9.26;77.08
26083;BME280;13848;49.018;12.078;2023-03-26T13:43:13;96371.06;;;9.54;76.26
26083;BME280;13848;49.018;12.078;2023-03-26T13:45:53;96362.72;;;9.55;76.43